Time;durP1;ratioP1;P1;durP2;ratioP2;P2;SDS_P1;SDS_P2;PMS_P1;PMS_P2;Temp;Humidity;BMP_temperature;BMP_pressure;BME280_temperature;BME280_humidity;BME280_pressure;Samples;Min_cycle;Max_cycle;Signal;HPM_P1;HPM_P2
2022/04/25 00:01:34;;;;;;;14.45;7.70;;;6.80;99.90;;;;;;5001387;28;20521;-64
2022/04/25 00:04:01;;;;;;;16.05;7.90;;;6.80;99.90;;;;;;5017960;28;20034;-64
2022/04/25 00:06:26;;;;;;;17.65;8.70;;;6.70;99.90;;;;;;5010343;28;20580;-65
2022/04/25 00:08:52;;;;;;;12.35;8.48;;;6.70;99.90;;;;;;5003642;28;20046;-64
2022/04/25 00:11:17;;;;;;;16.35;8.27;;;6.70;99.90;;;;;;5010172;28;20505;-64
2022/04/25 00:13:43;;;;;;;13.88;8.18;;;6.70;99.90;;;;;;5015411;28;20088;-65
2022/04/25 00:16:09;;;;;;;13.88;7.80;;;6.70;99.90;;;;;;5020026;28;79812;-65
2022/04/25 00:18:34;;;;;;;13.82;8.15;;;6.70;99.90;;;;;;5029831;28;20033;-64
2022/04/25 00:21:00;;;;;;;17.35;8.52;;;6.70;99.90;;;;;;5036400;28;20072;-63
2022/04/25 00:23:26;;;;;;;13.88;7.85;;;6.60;99.90;;;;;;5027437;28;20041;-64
2022/04/25 00:25:52;;;;;;;11.77;7.20;;;6.60;99.90;;;;;;5014109;28;20335;-65
2022/04/25 00:28:17;;;;;;;16.00;9.80;;;6.60;99.90;;;;;;5018837;28;20040;-64
2022/04/25 00:30:43;;;;;;;11.80;7.32;;;6.60;99.90;;;;;;5035627;28;20164;-64
2022/04/25 00:33:08;;;;;;;17.10;7.63;;;6.60;99.90;;;;;;5020755;28;20026;-64
2022/04/25 00:35:34;;;;;;;12.18;8.10;;;6.60;99.90;;;;;;5036985;28;20123;-64
2022/04/25 00:37:59;;;;;;;11.77;7.32;;;6.60;99.90;;;;;;5033498;28;20373;-64
2022/04/25 00:40:25;;;;;;;16.35;8.05;;;6.60;99.90;;;;;;5036123;28;20239;-64
2022/04/25 00:42:51;;;;;;;13.85;8.63;;;6.50;99.90;;;;;;5025661;28;20045;-64
2022/04/25 00:45:18;;;;;;;16.17;8.85;;;6.50;99.90;;;;;;5028174;28;20021;-64
2022/04/25 00:47:44;;;;;;;16.02;8.70;;;6.50;99.90;;;;;;5027473;28;20188;-64
2022/04/25 00:50:11;;;;;;;16.88;8.98;;;6.50;99.90;;;;;;5031836;28;20048;-64
2022/04/25 00:52:37;;;;;;;17.50;8.63;;;6.50;99.90;;;;;;5046248;28;20021;-65
2022/04/25 00:55:07;;;;;;;14.60;9.50;;;6.50;99.90;;;;;;5037140;28;20511;-64
2022/04/25 00:57:33;;;;;;;14.13;9.45;;;6.50;99.90;;;;;;5028201;28;20030;-64
2022/04/25 00:59:59;;;;;;;11.57;7.93;;;6.50;99.90;;;;;;5039938;28;20086;-64
2022/04/25 01:02:26;;;;;;;18.27;9.23;;;6.40;99.90;;;;;;5029489;28;20017;-65
2022/04/25 01:04:54;;;;;;;16.67;9.20;;;6.40;99.90;;;;;;5046308;28;20268;-64
2022/04/25 01:07:19;;;;;;;17.08;10.77;;;6.40;99.90;;;;;;5029149;28;20025;-64
2022/04/25 01:09:45;;;;;;;17.85;10.02;;;6.40;99.90;;;;;;5044857;28;20047;-65
2022/04/25 01:12:11;;;;;;;17.63;9.50;;;6.40;99.90;;;;;;5029374;28;20413;-64
2022/04/25 01:14:36;;;;;;;19.55;9.48;;;6.40;99.90;;;;;;5046196;28;20196;-64
2022/04/25 01:17:02;;;;;;;16.52;9.55;;;6.30;99.90;;;;;;5048709;28;20158;-64
2022/04/25 01:19:28;;;;;;;17.20;8.65;;;6.30;99.90;;;;;;5032467;28;20117;-64
2022/04/25 01:22:02;;;;;;;19.73;10.05;;;6.20;99.90;;;;;;5048537;28;20100;-65
2022/04/25 01:27:17;;;;;;;15.00;9.25;;;6.20;99.90;;;;;;5048819;28;20039;-65
2022/04/25 01:29:52;;;;;;;15.10;10.02;;;6.20;99.90;;;;;;5034366;28;20021;-65
2022/04/25 01:32:19;;;;;;;15.25;8.35;;;6.20;99.90;;;;;;5028561;28;20033;-65
2022/04/25 01:34:45;;;;;;;16.92;9.27;;;6.10;99.90;;;;;;5046092;28;20087;-64
2022/04/25 01:37:12;;;;;;;12.82;7.85;;;6.10;99.90;;;;;;5027691;28;20716;-64
2022/04/25 01:39:46;;;;;;;16.63;9.30;;;6.10;99.90;;;;;;5045930;28;20078;-65
2022/04/25 01:42:12;;;;;;;16.70;7.97;;;6.10;99.90;;;;;;5048334;28;20412;-65
2022/04/25 01:44:39;;;;;;;15.52;8.77;;;6.10;99.90;;;;;;5033766;28;20037;-65
2022/04/25 01:47:06;;;;;;;16.05;8.55;;;6.00;99.90;;;;;;5048305;28;20361;-64
2022/04/25 01:49:32;;;;;;;15.48;9.13;;;6.00;99.90;;;;;;5032674;28;20395;-65
2022/04/25 01:52:04;;;;;;;14.45;8.73;;;6.00;99.90;;;;;;5045906;28;20033;-65
2022/04/25 01:54:32;;;;;;;15.57;9.38;;;6.00;99.90;;;;;;5007482;28;20057;-65
2022/04/25 01:56:58;;;;;;;18.80;8.88;;;6.00;99.90;;;;;;5044830;28;20534;-65
2022/04/25 01:59:23;;;;;;;11.40;8.10;;;5.90;99.90;;;;;;5027093;28;20654;-63
2022/04/25 02:01:50;;;;;;;15.55;8.25;;;5.90;99.90;;;;;;5044469;28;20028;-65
2022/04/25 02:04:16;;;;;;;14.77;9.68;;;5.90;99.90;;;;;;5026831;28;20108;-65
2022/04/25 02:06:41;;;;;;;17.10;9.55;;;5.90;99.90;;;;;;5045058;28;20124;-65
2022/04/25 02:09:08;;;;;;;14.50;8.68;;;5.80;99.90;;;;;;5028236;28;20304;-64
2022/04/25 02:11:34;;;;;;;15.43;8.32;;;5.80;99.90;;;;;;5045542;28;20059;-64
2022/04/25 02:14:00;;;;;;;12.25;7.15;;;5.80;99.90;;;;;;5047880;28;20033;-65
2022/04/25 02:16:25;;;;;;;16.15;8.00;;;5.80;99.90;;;;;;5032500;28;20033;-65
2022/04/25 02:18:52;;;;;;;11.13;7.60;;;5.70;99.90;;;;;;5047741;28;20057;-65
2022/04/25 02:21:18;;;;;;;20.13;9.90;;;5.60;99.90;;;;;;5031099;28;20028;-65
2022/04/25 02:23:44;;;;;;;15.13;8.32;;;5.60;99.90;;;;;;5047524;28;20067;-65
2022/04/25 02:26:10;;;;;;;16.20;8.13;;;5.60;99.90;;;;;;5030160;28;20053;-64
2022/04/25 02:28:37;;;;;;;14.48;8.82;;;5.60;99.90;;;;;;5047529;28;20236;-65
2022/04/25 02:31:06;;;;;;;10.90;7.30;;;5.50;99.90;;;;;;5028834;28;20392;-64
2022/04/25 02:33:32;;;;;;;12.73;8.05;;;5.50;99.90;;;;;;5047645;28;20048;-65
2022/04/25 02:36:06;;;;;;;14.07;7.53;;;5.40;99.90;;;;;;5028433;28;20125;-65
2022/04/25 02:38:36;;;;;;;12.57;7.10;;;5.30;99.90;;;;;;5047601;28;20142;-65
2022/04/25 02:41:05;;;;;;;12.38;7.72;;;5.20;99.90;;;;;;5011740;28;20044;-64
2022/04/25 02:43:34;;;;;;;14.88;8.35;;;5.20;99.90;;;;;;5047355;28;20177;-65
2022/04/25 02:46:02;;;;;;;17.45;8.32;;;5.10;99.90;;;;;;5027949;28;20559;-64
2022/04/25 02:48:28;;;;;;;11.95;6.80;;;5.10;99.90;;;;;;5047483;28;20150;-65
2022/04/25 02:50:53;;;;;;;16.85;7.82;;;5.00;99.90;;;;;;5027417;28;20497;-64
2022/04/25 02:53:19;;;;;;;13.63;7.97;;;4.90;99.90;;;;;;5047438;28;20032;-66
2022/04/25 02:55:45;;;;;;;14.35;8.35;;;4.90;99.90;;;;;;5026604;28;20438;-64
2022/04/25 02:58:10;;;;;;;18.13;8.15;;;4.90;99.90;;;;;;5047224;28;20211;-64
2022/04/25 03:00:36;;;;;;;16.08;8.60;;;4.80;99.90;;;;;;5024042;28;20026;-65
2022/04/25 03:03:01;;;;;;;12.18;8.02;;;4.80;99.90;;;;;;5044790;28;20033;-64
2022/04/25 03:05:27;;;;;;;14.60;8.90;;;4.80;99.90;;;;;;5027722;28;20030;-64
2022/04/25 03:07:53;;;;;;;14.05;7.70;;;4.70;99.90;;;;;;5044634;28;20124;-64
2022/04/25 03:10:18;;;;;;;15.95;9.43;;;4.70;99.90;;;;;;5046992;28;20472;-66
2022/04/25 03:12:44;;;;;;;14.43;8.57;;;4.70;99.90;;;;;;5042786;28;20408;-65
2022/04/25 03:15:09;;;;;;;18.00;9.82;;;4.70;99.90;;;;;;5037829;28;20068;-65
2022/04/25 03:17:35;;;;;;;17.92;9.60;;;4.60;99.90;;;;;;5044483;28;20463;-66
2022/04/25 03:20:00;;;;;;;15.85;9.23;;;4.60;99.90;;;;;;5046713;28;20021;-59
2022/04/25 03:22:26;;;;;;;19.25;10.13;;;4.60;99.90;;;;;;5040163;28;20223;-59
2022/04/25 03:24:52;;;;;;;15.68;8.50;;;4.60;99.90;;;;;;5046760;28;20467;-59
2022/04/25 03:27:18;;;;;;;17.83;9.52;;;4.60;99.90;;;;;;5039149;28;20036;-59
2022/04/25 03:29:43;;;;;;;12.50;7.65;;;4.60;99.90;;;;;;5046668;28;20676;-59
2022/04/25 03:32:09;;;;;;;19.75;10.63;;;4.50;99.90;;;;;;5037833;28;20021;-59
2022/04/25 03:34:37;;;;;;;16.23;9.38;;;4.50;99.90;;;;;;5046747;28;20554;-59
2022/04/25 03:37:03;;;;;;;15.23;8.63;;;4.50;99.90;;;;;;5036214;28;20422;-58
2022/04/25 03:39:29;;;;;;;18.30;9.55;;;4.50;99.90;;;;;;5027303;28;20121;-58
2022/04/25 03:41:54;;;;;;;14.55;8.63;;;4.40;99.90;;;;;;5044120;28;20324;-57
2022/04/25 03:44:20;;;;;;;16.23;8.20;;;4.30;99.90;;;;;;5030171;28;20042;-58
2022/04/25 03:46:46;;;;;;;16.73;10.20;;;4.30;99.90;;;;;;5047890;28;20078;-58
2022/04/25 03:49:11;;;;;;;14.30;9.35;;;4.30;99.90;;;;;;5031025;28;20508;-58
2022/04/25 03:51:36;;;;;;;15.90;9.68;;;4.30;99.90;;;;;;5047790;28;20507;-57
2022/04/25 03:54:02;;;;;;;17.48;9.98;;;4.40;99.90;;;;;;5030783;28;20163;-59
2022/04/25 03:59:13;;;;;;;17.98;11.02;;;4.40;99.90;;;;;;5048953;28;20617;-59
2022/04/25 04:01:38;;;;;;;21.83;12.38;;;4.40;99.90;;;;;;5029442;28;20373;-59
2022/04/25 04:04:05;;;;;;;21.05;11.38;;;4.50;99.90;;;;;;5030753;28;20139;-59
2022/04/25 04:06:36;;;;;;;20.05;13.18;;;4.60;99.90;;;;;;5031199;28;20028;-59
2022/04/25 04:09:44;;;;;;;22.73;14.20;;;4.70;99.90;;;;;;5010502;28;20181;-59
2022/04/25 04:11:47;;;;;;;21.10;11.93;;;4.80;99.90;;;;;;5045908;28;20123;-59
2022/04/25 04:14:13;;;;;;;23.08;13.75;;;4.90;99.90;;;;;;5046622;28;20037;-59
2022/04/25 04:16:38;;;;;;;24.25;14.20;;;4.90;99.90;;;;;;5050309;28;20044;-59
2022/04/25 04:19:05;;;;;;;27.50;15.52;;;5.00;99.90;;;;;;5050048;28;20111;-59
2022/04/25 04:21:30;;;;;;;18.27;11.43;;;5.10;99.90;;;;;;5047542;28;20094;-59
2022/04/25 04:23:56;;;;;;;23.50;14.90;;;5.20;99.90;;;;;;5049937;28;20573;-59
2022/04/25 04:26:21;;;;;;;25.42;14.48;;;5.30;99.90;;;;;;5046646;28;20112;-59
2022/04/25 04:28:47;;;;;;;19.92;13.38;;;5.30;99.90;;;;;;5049870;28;20041;-59
2022/04/25 04:31:12;;;;;;;19.85;13.57;;;5.40;99.90;;;;;;5045190;28;20040;-59
2022/04/25 04:33:37;;;;;;;18.17;11.38;;;5.40;99.90;;;;;;5049900;28;20564;-59
2022/04/25 04:36:18;;;;;;;22.20;14.40;;;5.50;99.90;;;;;;5043823;28;20024;-59
2022/04/25 04:38:44;;;;;;;26.85;14.10;;;5.50;99.90;;;;;;5010104;28;20664;-59
2022/04/25 04:41:10;;;;;;;19.85;12.55;;;5.60;99.90;;;;;;5038818;28;20115;-59
2022/04/25 04:43:35;;;;;;;27.08;15.27;;;5.60;99.90;;;;;;5029964;28;20261;-56
2022/04/25 04:46:01;;;;;;;22.48;14.68;;;5.60;99.90;;;;;;5047044;28;20033;-58
2022/04/25 04:48:27;;;;;;;18.63;12.45;;;5.70;99.90;;;;;;5049715;28;20031;-59
2022/04/25 04:50:55;;;;;;;21.05;13.82;;;5.70;99.90;;;;;;5030641;28;20041;-60
2022/04/25 04:53:22;;;;;;;27.75;15.85;;;5.80;99.90;;;;;;5049370;28;20576;-60
2022/04/25 04:55:47;;;;;;;20.92;12.80;;;5.80;99.90;;;;;;5027945;28;20045;-59
2022/04/25 04:58:13;;;;;;;26.73;16.13;;;5.90;99.90;;;;;;5049362;28;20032;-60
2022/04/25 05:00:39;;;;;;;19.92;13.57;;;6.00;99.90;;;;;;5021466;28;20076;-59
2022/04/25 05:03:05;;;;;;;24.40;15.10;;;6.00;99.90;;;;;;5049256;28;20480;-60
2022/04/25 05:05:31;;;;;;;19.17;11.48;;;6.10;99.90;;;;;;5029842;28;20026;-60
2022/04/25 05:07:56;;;;;;;22.88;14.48;;;6.20;99.90;;;;;;5046858;28;20113;-60
2022/04/25 05:10:22;;;;;;;18.38;12.02;;;6.20;99.90;;;;;;5029636;28;20074;-60
2022/04/25 05:12:54;;;;;;;18.77;12.45;;;6.30;99.90;;;;;;5046464;28;20031;-60
2022/04/25 05:15:20;;;;;;;22.70;12.52;;;6.40;99.90;;;;;;5038420;28;20051;-60
2022/04/25 05:17:48;;;;;;;20.27;12.43;;;6.50;99.90;;;;;;5045265;28;20430;-60
2022/04/25 05:20:14;;;;;;;20.45;13.10;;;6.60;99.90;;;;;;5048581;28;20163;-59
2022/04/25 05:22:43;;;;;;;21.23;13.45;;;6.70;99.90;;;;;;5044348;28;20418;-61
2022/04/25 05:25:09;;;;;;;24.70;15.70;;;6.70;99.90;;;;;;5048396;28;20056;-60
2022/04/25 05:27:34;;;;;;;22.35;13.27;;;6.80;99.90;;;;;;5043904;28;20472;-60
2022/04/25 05:30:00;;;;;;;18.23;12.43;;;6.80;99.90;;;;;;5048234;28;20037;-59
2022/04/25 05:32:25;;;;;;;23.48;13.88;;;6.90;99.90;;;;;;5042419;28;20025;-60
2022/04/25 05:34:51;;;;;;;21.83;13.60;;;7.00;99.90;;;;;;5048375;28;20036;-60
2022/04/25 05:37:16;;;;;;;18.40;13.45;;;7.00;99.90;;;;;;5041046;28;20399;-60
2022/04/25 05:39:42;;;;;;;18.48;11.85;;;7.00;99.90;;;;;;5048144;28;20033;-61
2022/04/25 05:42:07;;;;;;;22.42;15.10;;;7.10;99.90;;;;;;5039636;28;20148;-60
2022/04/25 05:44:33;;;;;;;18.55;13.27;;;7.10;99.90;;;;;;5048020;28;20040;-60
2022/04/25 05:46:59;;;;;;;21.77;13.85;;;7.10;99.90;;;;;;5034960;28;20039;-61
2022/04/25 05:52:09;;;;;;;17.48;10.77;;;7.10;99.90;;;;;;5025331;28;20036;-60
2022/04/25 05:54:36;;;;;;;21.27;13.45;;;7.20;99.90;;;;;;5038761;28;20029;-60
2022/04/25 05:57:02;;;;;;;20.60;13.20;;;7.20;99.90;;;;;;5042001;28;20063;-60
2022/04/25 05:59:29;;;;;;;22.67;14.73;;;7.30;99.90;;;;;;5030251;28;20075;-58
2022/04/25 06:01:55;;;;;;;25.67;14.20;;;7.30;99.90;;;;;;5044891;28;20021;-62
2022/04/25 06:05:01;;;;;;;21.92;14.20;;;7.30;99.90;;;;;;5047227;28;20025;-60
2022/04/25 06:08:26;;;;;;;22.50;14.25;;;7.40;99.90;;;;;;5040988;28;20546;-60
2022/04/25 06:11:52;;;;;;;16.25;9.80;;;7.40;99.90;;;;;;5035831;28;20063;-56
2022/04/25 06:14:32;;;;;;;14.45;10.88;;;7.50;99.90;;;;;;5044979;28;20051;-61
2022/04/25 06:16:59;;;;;;;18.90;10.52;;;7.60;99.90;;;;;;5046979;28;20017;-60
2022/04/25 06:19:25;;;;;;;21.15;11.55;;;7.60;99.90;;;;;;5040982;28;20139;-60
2022/04/25 06:21:50;;;;;;;15.75;10.88;;;7.70;99.90;;;;;;5046766;28;20033;-60
2022/04/25 06:24:16;;;;;;;14.18;10.02;;;7.70;99.90;;;;;;5037338;28;20052;-61
2022/04/25 06:26:41;;;;;;;16.30;10.23;;;7.80;99.90;;;;;;5044896;28;20032;-60
2022/04/25 06:29:47;;;;;;;15.85;11.13;;;7.90;99.90;;;;;;5025213;28;20116;-59
2022/04/25 06:33:12;;;;;;;16.02;10.75;;;7.90;99.90;;;;;;5041225;28;20162;-59
2022/04/25 06:36:37;;;;;;;15.23;9.45;;;7.90;99.90;;;;;;5035844;28;20631;-60
2022/04/25 06:40:03;;;;;;;21.48;11.98;;;7.90;99.90;;;;;;5031960;28;20116;-59
2022/04/25 06:43:30;;;;;;;15.63;9.93;;;7.90;99.90;;;;;;5022000;28;20038;-60
2022/04/25 06:46:53;;;;;;;25.50;13.48;;;7.90;99.90;;;;;;5040681;28;20040;-59
2022/04/25 06:50:19;;;;;;;19.02;11.50;;;7.90;99.90;;;;;;5041002;28;20056;-60
2022/04/25 06:53:44;;;;;;;20.20;11.45;;;8.00;99.90;;;;;;5008438;28;20412;-61
2022/04/25 06:57:10;;;;;;;13.52;8.50;;;8.10;99.90;;;;;;5034262;28;20637;-59
2022/04/25 07:00:35;;;;;;;19.80;10.63;;;8.10;99.90;;;;;;5026438;28;20040;-64
2022/04/25 07:04:00;;;;;;;23.75;12.68;;;8.10;99.90;;;;;;5013441;28;20041;-64
2022/04/25 07:07:26;;;;;;;20.80;11.50;;;8.10;99.90;;;;;;5033161;28;20036;-63
2022/04/25 07:10:51;;;;;;;18.98;12.45;;;8.10;99.90;;;;;;5034705;28;20041;-65
2022/04/25 07:14:16;;;;;;;20.55;11.52;;;8.10;99.90;;;;;;5036831;28;20415;-64
2022/04/25 07:17:03;;;;;;;23.05;13.20;;;8.20;99.90;;;;;;5029006;28;20038;-63
2022/04/25 07:20:08;;;;;;;24.85;12.55;;;8.10;99.90;;;;;;5040579;28;20361;-63
2022/04/25 07:30:22;;;;;;;20.15;12.18;;;8.10;99.90;;;;;;5027414;28;20088;-66
2022/04/25 07:33:47;;;;;;;23.52;12.35;;;8.30;99.90;;;;;;5044503;28;20112;-67
2022/04/25 07:37:12;;;;;;;23.50;12.05;;;8.30;99.90;;;;;;5017167;28;20032;-64
2022/04/25 07:40:18;;;;;;;30.00;14.50;;;8.50;99.90;;;;;;5025248;28;20111;-64
2022/04/25 07:43:44;;;;;;;25.42;12.60;;;8.70;99.90;;;;;;5044092;28;20041;-62
2022/04/25 07:47:09;;;;;;;24.08;14.07;;;8.80;99.90;;;;;;5042311;28;20389;-63
2022/04/25 07:50:34;;;;;;;25.42;11.35;;;9.00;99.80;;;;;;5023497;28;20521;-63
2022/04/25 07:53:59;;;;;;;19.85;10.90;;;9.20;99.90;;;;;;5015616;28;20041;-63
2022/04/25 07:57:25;;;;;;;23.60;12.60;;;9.40;97.80;;;;;;5034503;28;20040;-63
2022/04/25 08:00:50;;;;;;;19.90;11.05;;;9.60;91.70;;;;;;5022853;28;20484;-62
2022/04/25 08:04:15;;;;;;;19.80;9.82;;;9.70;93.10;;;;;;5020105;28;20104;-63
2022/04/25 08:07:41;;;;;;;18.88;11.32;;;9.80;92.40;;;;;;5042963;28;20461;-62
2022/04/25 08:11:06;;;;;;;19.90;11.20;;;9.80;90.20;;;;;;5032267;28;20057;-63
2022/04/25 08:18:00;;;;;;;16.80;9.15;;;10.40;90.20;;;;;;5010482;28;20052;-63
2022/04/25 08:21:04;;;;;;;;;;;10.70;85.20;;;;;;5022203;28;20041;-63
2022/04/25 08:24:29;;;;;;;17.05;9.23;;;11.00;80.60;;;;;;5009959;28;19964;-63
2022/04/25 08:27:55;;;;;;;17.48;10.70;;;11.20;80.00;;;;;;5038456;28;20037;-63
2022/04/25 08:31:21;;;;;;;19.98;9.65;;;11.40;73.40;;;;;;5021778;28;20140;-63
2022/04/25 08:34:45;;;;;;;16.70;9.80;;;11.50;74.70;;;;;;5035285;28;20087;-61
2022/04/25 08:38:11;;;;;;;14.43;9.13;;;11.70;70.20;;;;;;5043069;28;20063;-63
2022/04/25 08:41:36;;;;;;;23.40;12.35;;;11.80;70.10;;;;;;5022502;28;20029;-63
2022/04/25 08:45:02;;;;;;;19.90;10.48;;;11.60;67.70;;;;;;5040191;28;20411;-63
2022/04/25 08:48:30;;;;;;;16.98;10.23;;;11.50;67.30;;;;;;5042684;28;20040;-63
2022/04/25 08:51:58;;;;;;;16.55;8.38;;;11.80;64.60;;;;;;5024779;28;20045;-62
2022/04/25 08:55:20;;;;;;;14.70;8.55;;;12.00;64.50;;;;;;5027754;28;20163;-63
2022/04/25 08:58:46;;;;;;;15.10;8.82;;;12.20;60.60;;;;;;5037302;28;20129;-62
2022/04/25 09:02:11;;;;;;;16.67;8.98;;;12.30;59.60;;;;;;5042183;28;20029;-63
2022/04/25 09:05:36;;;;;;;17.20;10.88;;;12.50;61.90;;;;;;5031918;28;20033;-63
2022/04/25 09:09:02;;;;;;;13.52;8.25;;;12.30;57.70;;;;;;5037851;28;20033;-62
2022/04/25 09:12:27;;;;;;;13.27;8.90;;;12.70;54.40;;;;;;5042897;28;20063;-63
2022/04/25 09:15:53;;;;;;;11.55;7.07;;;13.20;49.60;;;;;;5027397;28;20493;-63
2022/04/25 09:19:18;;;;;;;11.85;7.00;;;13.50;50.80;;;;;;5009161;28;20048;-63
2022/04/25 09:22:06;;;;;;;11.60;6.10;;;13.30;52.50;;;;;;5008595;28;20127;-64
2022/04/25 09:24:33;;;;;;;14.25;6.47;;;13.30;53.70;;;;;;5041282;28;20104;-67
2022/04/25 09:27:08;;;;;;;7.28;4.57;;;13.40;55.00;;;;;;5028163;28;20030;-67
2022/04/25 09:29:35;;;;;;;9.73;5.53;;;13.20;53.70;;;;;;5040978;28;20033;-67
2022/04/25 09:32:01;;;;;;;11.25;6.20;;;13.10;52.50;;;;;;5028783;28;20029;-66
2022/04/25 09:37:13;;;;;;;87.23;21.57;;;13.10;52.40;;;;;;5029000;28;20037;-67
2022/04/25 09:39:40;;;;;;;20.52;7.97;;;13.10;50.80;;;;;;5040267;28;20033;-67
2022/04/25 09:42:05;;;;;;;14.45;4.95;;;13.00;52.20;;;;;;5027837;28;20075;-67
2022/04/25 09:44:57;;;;;;;41.67;11.38;;;13.30;53.00;;;;;;5041267;28;20127;-67
2022/04/25 09:48:08;;;;;;;7.00;4.05;;;13.50;50.70;;;;;;5028780;28;20025;-67
2022/04/25 09:51:40;;;;;;;5.72;2.92;;;13.70;45.20;;;;;;5023018;28;20049;-67
2022/04/25 09:55:05;;;;;;;6.35;3.05;;;14.10;45.20;;;;;;5038873;28;20577;-67
2022/04/25 09:58:38;;;;;;;4.50;3.03;;;14.30;42.90;;;;;;5044881;28;20029;-67
2022/04/25 10:02:04;;;;;;;3.88;2.50;;;14.70;41.70;;;;;;5017520;28;20207;-67
2022/04/25 10:05:34;;;;;;;4.47;2.97;;;15.60;39.60;;;;;;5033205;28;20041;-67
2022/04/25 10:08:59;;;;;;;4.00;2.50;;;15.40;35.00;;;;;;5008326;28;20030;-67
2022/04/25 10:12:24;;;;;;;4.95;3.20;;;15.30;35.00;;;;;;5036459;28;20060;-66
2022/04/25 10:15:50;;;;;;;5.45;3.15;;;15.30;34.90;;;;;;5014281;28;20061;-65
2022/04/25 10:19:15;;;;;;;9.05;3.13;;;15.50;35.60;;;;;;5036596;28;20124;-66
2022/04/25 10:22:40;;;;;;;2.90;2.17;;;16.00;34.80;;;;;;5042027;28;20484;-64
2022/04/25 10:26:09;;;;;;;4.75;2.47;;;16.00;33.50;;;;;;5022254;28;20040;-66
2022/04/25 10:29:14;;;;;;;;;;;16.20;31.80;;;;;;5046499;28;20041;-66
2022/04/25 10:32:40;;;;;;;5.03;3.03;;;16.20;30.30;;;;;;5036346;28;19913;-65
2022/04/25 10:36:11;;;;;;;4.45;2.63;;;15.90;30.80;;;;;;5027427;28;20126;-66
2022/04/25 10:39:20;;;;;;;3.72;2.45;;;15.80;31.90;;;;;;5036086;28;20033;-65
2022/04/25 10:46:21;;;;;;;6.10;2.80;;;16.00;32.00;;;;;;5016581;28;20543;-66
2022/04/25 10:49:46;;;;;;;2.47;2.10;;;15.80;32.00;;;;;;5032757;28;20760;-65
2022/04/25 10:55:26;;;;;;;3.28;2.63;;;16.40;30.00;;;;;;5017705;28;20060;-65
2022/04/25 10:58:49;;;;;;;4.88;3.00;;;16.50;28.60;;;;;;5039312;28;20036;-65
2022/04/25 11:02:14;;;;;;;3.95;2.50;;;16.40;30.00;;;;;;5044021;28;20037;-65
2022/04/25 11:05:18;;;;;;;5.28;2.55;;;16.60;27.30;;;;;;5016410;28;20037;-65
2022/04/25 11:08:16;;;;;;;5.38;3.13;;;16.60;28.50;;;;;;5040292;28;20087;-65
2022/04/25 11:11:47;;;;;;;4.18;2.28;;;16.20;29.00;;;;;;5028672;28;20509;-59
2022/04/25 11:15:15;;;;;;;5.85;3.13;;;16.00;28.60;;;;;;5033224;28;20416;-59
2022/04/25 11:18:38;;;;;;;5.13;2.88;;;15.80;30.10;;;;;;5011567;28;20042;-59
2022/04/25 11:22:00;;;;;;;5.90;2.60;;;15.80;30.40;;;;;;5035385;28;20611;-59
2022/04/25 11:25:25;;;;;;;5.68;2.38;;;15.50;30.40;;;;;;5031368;28;20037;-59
2022/04/25 11:28:49;;;;;;;5.00;2.33;;;15.50;29.80;;;;;;5011314;28;20044;-59
2022/04/25 11:32:17;;;;;;;2.97;2.22;;;15.60;29.90;;;;;;5044852;28;20377;-59
2022/04/25 11:35:43;;;;;;;3.23;2.50;;;15.40;30.90;;;;;;5028961;28;20520;-59
2022/04/25 11:42:32;;;;;;;2.97;2.10;;;15.20;31.20;;;;;;5030948;28;20060;-59
2022/04/25 11:45:58;;;;;;;4.35;2.28;;;15.10;32.40;;;;;;5018312;28;20471;-59
2022/04/25 11:49:23;;;;;;;4.63;2.60;;;15.50;31.20;;;;;;5039302;28;20116;-59
2022/04/25 11:52:48;;;;;;;4.72;2.80;;;15.30;30.00;;;;;;5039363;28;20535;-59
2022/04/25 11:56:16;;;;;;;6.05;3.20;;;15.20;31.60;;;;;;5024539;28;20033;-59
2022/04/25 11:59:45;;;;;;;4.10;2.60;;;15.20;31.00;;;;;;5039137;28;20033;-59
2022/04/25 12:03:13;;;;;;;4.18;2.75;;;15.10;33.00;;;;;;5044742;28;20069;-59
2022/04/25 12:06:28;;;;;;;;;;;15.20;32.10;;;;;;5028375;28;20396;-59
2022/04/25 12:16:42;;;;;;;3.90;3.00;;;15.10;33.00;;;;;;5025808;28;20052;-59
2022/04/25 12:20:16;;;;;;;2.85;2.25;;;15.50;31.40;;;;;;5036846;28;20037;-60
2022/04/25 12:23:43;;;;;;;2.70;2.40;;;15.90;30.30;;;;;;5030243;28;20405;-59
2022/04/25 12:27:07;;;;;;;3.28;2.55;;;15.80;28.30;;;;;;5042693;28;20045;-59
2022/04/25 12:30:45;;;;;;;4.38;2.92;;;15.90;29.60;;;;;;5031493;28;20598;-59
2022/04/25 12:34:13;;;;;;;6.97;3.00;;;15.80;29.60;;;;;;5038818;28;20646;-60
2022/04/25 12:37:19;;;;;;;;;;;15.40;30.00;;;;;;5039533;28;20029;-59
2022/04/25 12:40:44;;;;;;;4.53;2.30;;;15.50;30.90;;;;;;5017673;28;19962;-59
2022/04/25 12:44:01;;;;;;;5.03;2.85;;;15.60;30.50;;;;;;5046231;28;20749;-59
2022/04/25 12:47:27;;;;;;;4.53;2.40;;;15.50;31.30;;;;;;5032807;28;20040;-59
2022/04/25 12:50:58;;;;;;;5.22;3.13;;;15.50;32.30;;;;;;5014383;28;20493;-59
2022/04/25 12:54:24;;;;;;;4.35;2.88;;;15.60;31.20;;;;;;5027225;28;20742;-59
2022/04/25 12:57:58;;;;;;;5.90;3.17;;;15.80;30.00;;;;;;5031700;28;20038;-59
2022/04/25 13:01:23;;;;;;;6.88;4.05;;;15.60;30.50;;;;;;5029250;28;20040;-59
2022/04/25 13:04:52;;;;;;;4.00;2.58;;;15.50;29.30;;;;;;5026939;28;20084;-59
2022/04/25 13:07:42;;;;;;;;;;;15.50;30.40;;;;;;5028016;28;20409;-59
2022/04/25 13:10:10;;;;;;;5.20;3.13;;;15.80;29.80;;;;;;5026983;28;19928;-60
2022/04/25 13:12:44;;;;;;;4.47;2.80;;;15.80;29.90;;;;;;5024227;28;20029;-60
2022/04/25 13:15:14;;;;;;;3.65;2.72;;;15.80;29.70;;;;;;5034342;28;20539;-59
2022/04/25 13:17:41;;;;;;;5.82;3.28;;;15.90;29.50;;;;;;5020822;28;20025;-59
2022/04/25 13:20:09;;;;;;;6.72;3.50;;;15.70;29.40;;;;;;5036188;28;20037;-60
2022/04/25 13:22:35;;;;;;;7.78;3.15;;;15.70;29.40;;;;;;5022470;28;20030;-60
2022/04/25 13:25:01;;;;;;;4.13;2.95;;;15.60;29.40;;;;;;5032047;28;20041;-60
2022/04/25 13:28:06;;;;;;;3.85;3.00;;;15.40;29.10;;;;;;5028681;28;20036;-60
2022/04/25 13:31:32;;;;;;;5.57;3.25;;;15.30;29.00;;;;;;5029963;28;20042;-60
2022/04/25 13:34:57;;;;;;;6.47;3.58;;;15.50;29.20;;;;;;5022620;28;20408;-59
2022/04/25 13:38:22;;;;;;;5.32;3.35;;;15.40;29.70;;;;;;5025651;28;20044;-60
2022/04/25 13:41:47;;;;;;;4.22;2.85;;;15.40;29.60;;;;;;5031246;28;20516;-60
2022/04/25 13:45:13;;;;;;;6.43;3.20;;;15.40;27.70;;;;;;5035694;28;20045;-60
2022/04/25 13:48:38;;;;;;;3.60;2.80;;;15.40;29.00;;;;;;5032868;28;20133;-61
2022/04/25 13:52:04;;;;;;;3.22;2.63;;;15.40;29.50;;;;;;5026162;28;20037;-60
2022/04/25 13:55:29;;;;;;;5.25;3.13;;;15.30;29.20;;;;;;5018507;28;20099;-60
2022/04/25 13:58:54;;;;;;;6.53;2.72;;;15.40;29.20;;;;;;5022768;28;20039;-60
2022/04/25 14:05:44;;;;;;;6.50;3.22;;;15.50;28.80;;;;;;5032703;28;20508;-59
2022/04/25 14:09:09;;;;;;;55.50;13.48;;;15.70;28.80;;;;;;5033401;28;20154;-60
2022/04/25 14:12:37;;;;;;;28.00;7.80;;;15.90;28.50;;;;;;5006954;28;20046;-61
2022/04/25 14:16:00;;;;;;;6.78;3.28;;;16.30;27.70;;;;;;5029368;28;20412;-59
2022/04/25 14:19:25;;;;;;;34.10;9.20;;;16.50;26.90;;;;;;5027827;28;20041;-59
2022/04/25 14:22:53;;;;;;;14.60;5.00;;;16.20;26.90;;;;;;5023208;28;20096;-60
2022/04/25 14:26:17;;;;;;;8.23;2.85;;;15.90;23.20;;;;;;5025041;28;20037;-60
2022/04/25 14:29:41;;;;;;;6.78;2.47;;;15.80;25.80;;;;;;5035331;28;20399;-60
2022/04/25 14:33:07;;;;;;;3.53;2.33;;;15.60;24.20;;;;;;5018244;28;20042;-60
2022/04/25 14:36:32;;;;;;;3.85;2.10;;;15.40;24.50;;;;;;5021077;28;20626;-59
2022/04/25 14:39:57;;;;;;;4.63;2.70;;;15.30;26.70;;;;;;5031757;28;20136;-60
2022/04/25 14:43:23;;;;;;;4.80;2.90;;;15.10;25.20;;;;;;5026999;28;20041;-59
2022/04/25 14:46:48;;;;;;;2.90;2.60;;;15.00;27.80;;;;;;5023036;28;20065;-59
2022/04/25 14:57:02;;;;;;;4.05;2.53;;;15.40;28.10;;;;;;5023964;28;20500;-59
2022/04/25 15:00:28;;;;;;;5.10;2.90;;;15.70;27.80;;;;;;5023882;28;20077;-59
2022/04/25 15:03:53;;;;;;;3.38;2.25;;;15.60;27.10;;;;;;5016827;28;20887;-59
2022/04/25 15:07:18;;;;;;;3.20;2.80;;;15.70;27.40;;;;;;5017514;28;20034;-59
2022/04/25 15:10:45;;;;;;;4.32;2.20;;;15.60;27.30;;;;;;5029606;28;20511;-74
2022/04/25 15:14:09;;;;;;;5.78;3.05;;;15.60;27.60;;;;;;5012042;28;20488;-74
2022/04/25 15:17:34;;;;;;;4.20;2.75;;;15.60;27.90;;;;;;5025710;28;20042;-75
2022/04/25 15:20:47;;;;;;;4.95;2.85;;;15.60;27.80;;;;;;5041153;28;20480;-75
2022/04/25 15:23:53;;;;;;;7.95;3.10;;;15.70;27.20;;;;;;4991773;28;20033;-64
2022/04/25 15:27:19;;;;;;;6.50;2.58;;;15.70;26.90;;;;;;5035181;28;20685;-64
2022/04/25 15:30:43;;;;;;;4.50;2.25;;;15.70;27.40;;;;;;5033551;28;20136;-63
2022/04/25 15:34:09;;;;;;;3.95;2.35;;;15.60;28.00;;;;;;5024543;28;20145;-65
2022/04/25 15:37:34;;;;;;;4.00;2.20;;;15.60;26.20;;;;;;5042617;28;20045;-63
2022/04/25 15:41:00;;;;;;;3.05;1.88;;;15.30;25.50;;;;;;5043128;28;20689;-64
2022/04/25 15:44:25;;;;;;;3.03;1.90;;;15.00;26.50;;;;;;5021137;28;20047;-64